sensor_id;sensor_type;location;lat;lon;timestamp;temperature;humidity
28548;DHT22;68292;49.600;8.746;2023-06-24T00:00:13;25.20;48.10
28548;DHT22;68292;49.600;8.746;2023-06-24T00:02:45;25.20;48.10
28548;DHT22;68292;49.600;8.746;2023-06-24T00:05:13;25.20;48.10
28548;DHT22;68292;49.600;8.746;2023-06-24T00:07:43;25.20;48.10
28548;DHT22;68292;49.600;8.746;2023-06-24T00:10:13;25.20;48.10
28548;DHT22;68292;49.600;8.746;2023-06-24T00:12:45;25.20;48.20
28548;DHT22;68292;49.600;8.746;2023-06-24T00:15:13;25.20;48.20
28548;DHT22;68292;49.600;8.746;2023-06-24T00:17:41;25.10;48.10
28548;DHT22;68292;49.600;8.746;2023-06-24T00:20:10;25.10;48.10
28548;DHT22;68292;49.600;8.746;2023-06-24T00:22:41;25.10;48.20
28548;DHT22;68292;49.600;8.746;2023-06-24T00:25:11;25.10;48.10
28548;DHT22;68292;49.600;8.746;2023-06-24T00:27:41;25.10;48.20
28548;DHT22;68292;49.600;8.746;2023-06-24T00:30:12;25.10;48.20
28548;DHT22;68292;49.600;8.746;2023-06-24T00:32:40;25.00;48.20
28548;DHT22;68292;49.600;8.746;2023-06-24T00:35:09;25.00;48.20
28548;DHT22;68292;49.600;8.746;2023-06-24T00:37:39;25.00;48.20
28548;DHT22;68292;49.600;8.746;2023-06-24T00:40:08;25.00;48.90
28548;DHT22;68292;49.600;8.746;2023-06-24T00:42:44;25.00;48.20
28548;DHT22;68292;49.600;8.746;2023-06-24T00:45:14;24.90;48.10
28548;DHT22;68292;49.600;8.746;2023-06-24T00:47:43;24.90;48.10
28548;DHT22;68292;49.600;8.746;2023-06-24T00:50:12;24.90;48.10
28548;DHT22;68292;49.600;8.746;2023-06-24T00:52:40;24.90;48.10
28548;DHT22;68292;49.600;8.746;2023-06-24T00:55:11;24.90;48.20
28548;DHT22;68292;49.600;8.746;2023-06-24T00:57:40;24.90;48.20
28548;DHT22;68292;49.600;8.746;2023-06-24T01:00:10;24.90;48.20
28548;DHT22;68292;49.600;8.746;2023-06-24T01:02:42;24.90;48.20
28548;DHT22;68292;49.600;8.746;2023-06-24T01:05:11;24.90;48.20
28548;DHT22;68292;49.600;8.746;2023-06-24T01:07:40;24.80;48.10
28548;DHT22;68292;49.600;8.746;2023-06-24T01:10:10;24.80;48.10
28548;DHT22;68292;49.600;8.746;2023-06-24T01:12:40;24.80;48.10
28548;DHT22;68292;49.600;8.746;2023-06-24T01:15:11;24.80;48.80
28548;DHT22;68292;49.600;8.746;2023-06-24T01:17:44;24.80;48.20
28548;DHT22;68292;49.600;8.746;2023-06-24T01:20:20;24.80;48.20
28548;DHT22;68292;49.600;8.746;2023-06-24T01:23:11;24.80;48.20
28548;DHT22;68292;49.600;8.746;2023-06-24T01:26:05;24.70;48.20
28548;DHT22;68292;49.600;8.746;2023-06-24T01:29:00;24.70;48.20
28548;DHT22;68292;49.600;8.746;2023-06-24T01:31:43;24.70;48.20
28548;DHT22;68292;49.600;8.746;2023-06-24T01:34:25;24.70;48.10
28548;DHT22;68292;49.600;8.746;2023-06-24T01:37:03;24.60;48.20
28548;DHT22;68292;49.600;8.746;2023-06-24T01:39:40;24.70;48.20
28548;DHT22;68292;49.600;8.746;2023-06-24T01:42:15;24.60;48.20
28548;DHT22;68292;49.600;8.746;2023-06-24T01:44:45;24.60;48.20
28548;DHT22;68292;49.600;8.746;2023-06-24T01:47:19;24.60;48.20
28548;DHT22;68292;49.600;8.746;2023-06-24T01:49:53;24.60;48.40
28548;DHT22;68292;49.600;8.746;2023-06-24T01:52:23;24.60;48.30
28548;DHT22;68292;49.600;8.746;2023-06-24T01:54:52;24.50;48.30
28548;DHT22;68292;49.600;8.746;2023-06-24T01:57:22;24.50;48.30
28548;DHT22;68292;49.600;8.746;2023-06-24T01:59:52;24.50;48.40
28548;DHT22;68292;49.600;8.746;2023-06-24T02:02:25;24.50;48.40
28548;DHT22;68292;49.600;8.746;2023-06-24T02:04:54;24.40;48.40
28548;DHT22;68292;49.600;8.746;2023-06-24T02:07:24;24.50;48.40
28548;DHT22;68292;49.600;8.746;2023-06-24T02:09:54;24.40;48.30
28548;DHT22;68292;49.600;8.746;2023-06-24T02:12:23;24.40;48.30
28548;DHT22;68292;49.600;8.746;2023-06-24T02:14:52;24.40;48.30
28548;DHT22;68292;49.600;8.746;2023-06-24T02:17:25;24.40;48.30
28548;DHT22;68292;49.600;8.746;2023-06-24T02:19:57;24.40;48.30
28548;DHT22;68292;49.600;8.746;2023-06-24T02:22:26;24.40;48.30
28548;DHT22;68292;49.600;8.746;2023-06-24T02:24:55;24.40;48.30
28548;DHT22;68292;49.600;8.746;2023-06-24T02:27:24;24.30;48.20
28548;DHT22;68292;49.600;8.746;2023-06-24T02:29:53;24.30;48.30
28548;DHT22;68292;49.600;8.746;2023-06-24T02:32:25;24.30;48.30
28548;DHT22;68292;49.600;8.746;2023-06-24T02:34:53;24.30;48.30
28548;DHT22;68292;49.600;8.746;2023-06-24T02:37:21;24.30;48.30
28548;DHT22;68292;49.600;8.746;2023-06-24T02:39:49;24.30;48.30
28548;DHT22;68292;49.600;8.746;2023-06-24T02:42:18;24.30;48.40
28548;DHT22;68292;49.600;8.746;2023-06-24T02:44:46;24.30;48.30
28548;DHT22;68292;49.600;8.746;2023-06-24T02:47:15;24.20;48.30
28548;DHT22;68292;49.600;8.746;2023-06-24T02:49:47;24.20;48.30
28548;DHT22;68292;49.600;8.746;2023-06-24T02:52:16;24.20;48.40
28548;DHT22;68292;49.600;8.746;2023-06-24T02:54:44;24.20;48.40
28548;DHT22;68292;49.600;8.746;2023-06-24T02:57:25;24.20;48.40
28548;DHT22;68292;49.600;8.746;2023-06-24T03:00:17;24.10;48.40
28548;DHT22;68292;49.600;8.746;2023-06-24T03:03:13;24.10;48.40
28548;DHT22;68292;49.600;8.746;2023-06-24T03:05:54;24.20;48.40
28548;DHT22;68292;49.600;8.746;2023-06-24T03:08:27;24.10;48.40
28548;DHT22;68292;49.600;8.746;2023-06-24T03:10:56;24.10;48.50
28548;DHT22;68292;49.600;8.746;2023-06-24T03:13:29;24.10;48.50
28548;DHT22;68292;49.600;8.746;2023-06-24T03:16:12;24.10;48.50
28548;DHT22;68292;49.600;8.746;2023-06-24T03:18:53;24.10;48.50
28548;DHT22;68292;49.600;8.746;2023-06-24T03:21:23;24.10;48.50
28548;DHT22;68292;49.600;8.746;2023-06-24T03:24:01;24.10;48.60
28548;DHT22;68292;49.600;8.746;2023-06-24T03:26:32;24.00;48.50
28548;DHT22;68292;49.600;8.746;2023-06-24T03:29:03;24.00;48.60
28548;DHT22;68292;49.600;8.746;2023-06-24T03:31:32;24.00;48.60
28548;DHT22;68292;49.600;8.746;2023-06-24T03:34:01;24.00;49.20
28548;DHT22;68292;49.600;8.746;2023-06-24T03:36:30;24.00;48.60
28548;DHT22;68292;49.600;8.746;2023-06-24T03:39:01;24.00;48.60
28548;DHT22;68292;49.600;8.746;2023-06-24T03:41:30;24.00;48.60
28548;DHT22;68292;49.600;8.746;2023-06-24T03:43:58;23.90;48.60
28548;DHT22;68292;49.600;8.746;2023-06-24T03:46:27;23.90;48.60
28548;DHT22;68292;49.600;8.746;2023-06-24T03:49:00;23.90;48.70
28548;DHT22;68292;49.600;8.746;2023-06-24T03:51:31;23.90;48.70
28548;DHT22;68292;49.600;8.746;2023-06-24T03:53:59;23.90;48.80
28548;DHT22;68292;49.600;8.746;2023-06-24T03:56:27;23.90;48.80
28548;DHT22;68292;49.600;8.746;2023-06-24T03:58:55;23.90;48.80
28548;DHT22;68292;49.600;8.746;2023-06-24T04:01:25;23.90;48.80
28548;DHT22;68292;49.600;8.746;2023-06-24T04:03:54;23.90;48.90
28548;DHT22;68292;49.600;8.746;2023-06-24T04:06:22;23.90;48.90
28548;DHT22;68292;49.600;8.746;2023-06-24T04:08:53;23.90;49.00
28548;DHT22;68292;49.600;8.746;2023-06-24T04:11:22;23.90;49.00
28548;DHT22;68292;49.600;8.746;2023-06-24T04:13:50;23.90;49.00
28548;DHT22;68292;49.600;8.746;2023-06-24T04:16:18;23.90;49.00
28548;DHT22;68292;49.600;8.746;2023-06-24T04:18:46;23.90;49.00
28548;DHT22;68292;49.600;8.746;2023-06-24T04:21:14;23.90;49.00
28548;DHT22;68292;49.600;8.746;2023-06-24T04:23:43;23.90;49.10
28548;DHT22;68292;49.600;8.746;2023-06-24T04:26:12;23.90;49.10
28548;DHT22;68292;49.600;8.746;2023-06-24T04:28:42;23.90;49.10
28548;DHT22;68292;49.600;8.746;2023-06-24T04:31:10;23.90;49.10
28548;DHT22;68292;49.600;8.746;2023-06-24T04:33:38;23.90;49.20
28548;DHT22;68292;49.600;8.746;2023-06-24T04:36:07;23.90;49.10
28548;DHT22;68292;49.600;8.746;2023-06-24T04:38:36;23.90;49.20
28548;DHT22;68292;49.600;8.746;2023-06-24T04:41:04;23.90;49.10
28548;DHT22;68292;49.600;8.746;2023-06-24T04:43:34;23.90;49.20
28548;DHT22;68292;49.600;8.746;2023-06-24T04:46:03;24.00;49.30
28548;DHT22;68292;49.600;8.746;2023-06-24T04:48:31;24.00;49.30
28548;DHT22;68292;49.600;8.746;2023-06-24T04:50:59;24.00;49.30
28548;DHT22;68292;49.600;8.746;2023-06-24T04:53:29;24.00;49.40
28548;DHT22;68292;49.600;8.746;2023-06-24T04:55:57;24.00;49.50
28548;DHT22;68292;49.600;8.746;2023-06-24T04:58:25;24.00;49.50
28548;DHT22;68292;49.600;8.746;2023-06-24T05:00:54;24.00;49.60
28548;DHT22;68292;49.600;8.746;2023-06-24T05:03:23;24.00;49.70
28548;DHT22;68292;49.600;8.746;2023-06-24T05:05:51;24.00;50.40
28548;DHT22;68292;49.600;8.746;2023-06-24T05:08:19;24.00;49.80
28548;DHT22;68292;49.600;8.746;2023-06-24T05:10:47;24.10;50.00
28548;DHT22;68292;49.600;8.746;2023-06-24T05:13:15;24.10;50.00
28548;DHT22;68292;49.600;8.746;2023-06-24T05:15:43;24.10;50.10
28548;DHT22;68292;49.600;8.746;2023-06-24T05:18:13;24.10;50.20
28548;DHT22;68292;49.600;8.746;2023-06-24T05:20:41;24.10;50.30
28548;DHT22;68292;49.600;8.746;2023-06-24T05:23:09;24.10;50.30
28548;DHT22;68292;49.600;8.746;2023-06-24T05:25:37;24.10;50.30
28548;DHT22;68292;49.600;8.746;2023-06-24T05:28:05;24.20;51.10
28548;DHT22;68292;49.600;8.746;2023-06-24T05:30:33;24.20;50.50
28548;DHT22;68292;49.600;8.746;2023-06-24T05:33:01;24.20;50.60
28548;DHT22;68292;49.600;8.746;2023-06-24T05:35:31;24.20;50.60
28548;DHT22;68292;49.600;8.746;2023-06-24T05:37:59;24.20;50.80
28548;DHT22;68292;49.600;8.746;2023-06-24T05:40:28;24.30;50.90
28548;DHT22;68292;49.600;8.746;2023-06-24T05:42:56;24.30;51.00
28548;DHT22;68292;49.600;8.746;2023-06-24T05:45:24;24.30;51.10
28548;DHT22;68292;49.600;8.746;2023-06-24T05:47:52;24.30;50.90
28548;DHT22;68292;49.600;8.746;2023-06-24T05:50:20;24.30;50.90
28548;DHT22;68292;49.600;8.746;2023-06-24T05:52:50;24.40;50.90
28548;DHT22;68292;49.600;8.746;2023-06-24T05:55:18;24.40;50.90
28548;DHT22;68292;49.600;8.746;2023-06-24T05:57:46;24.40;50.90
28548;DHT22;68292;49.600;8.746;2023-06-24T06:00:14;24.40;50.80
28548;DHT22;68292;49.600;8.746;2023-06-24T06:02:44;24.40;50.80
28548;DHT22;68292;49.600;8.746;2023-06-24T06:05:12;24.50;50.80
28548;DHT22;68292;49.600;8.746;2023-06-24T06:07:41;24.50;50.90
28548;DHT22;68292;49.600;8.746;2023-06-24T06:10:11;24.50;50.90
28548;DHT22;68292;49.600;8.746;2023-06-24T06:12:42;24.50;50.90
28548;DHT22;68292;49.600;8.746;2023-06-24T06:15:10;24.60;50.90
28548;DHT22;68292;49.600;8.746;2023-06-24T06:17:38;24.60;50.90
28548;DHT22;68292;49.600;8.746;2023-06-24T06:20:08;24.60;50.90
28548;DHT22;68292;49.600;8.746;2023-06-24T06:22:37;24.60;50.90
28548;DHT22;68292;49.600;8.746;2023-06-24T06:25:05;24.60;51.00
28548;DHT22;68292;49.600;8.746;2023-06-24T06:27:35;24.70;51.80
28548;DHT22;68292;49.600;8.746;2023-06-24T06:30:04;24.70;51.30
28548;DHT22;68292;49.600;8.746;2023-06-24T06:32:33;24.70;51.30
28548;DHT22;68292;49.600;8.746;2023-06-24T06:35:01;24.80;51.40
28548;DHT22;68292;49.600;8.746;2023-06-24T06:37:30;24.80;51.50
28548;DHT22;68292;49.600;8.746;2023-06-24T06:39:58;24.80;51.50
28548;DHT22;68292;49.600;8.746;2023-06-24T06:42:26;24.90;51.50
28548;DHT22;68292;49.600;8.746;2023-06-24T06:44:55;24.90;51.40
28548;DHT22;68292;49.600;8.746;2023-06-24T06:47:23;24.90;51.50
28548;DHT22;68292;49.600;8.746;2023-06-24T06:49:51;24.90;51.50
28548;DHT22;68292;49.600;8.746;2023-06-24T06:52:19;25.00;51.60
28548;DHT22;68292;49.600;8.746;2023-06-24T06:54:48;25.00;51.40
28548;DHT22;68292;49.600;8.746;2023-06-24T06:57:16;25.00;51.40
28548;DHT22;68292;49.600;8.746;2023-06-24T06:59:44;25.10;51.40
28548;DHT22;68292;49.600;8.746;2023-06-24T07:02:13;25.10;51.40
28548;DHT22;68292;49.600;8.746;2023-06-24T07:04:42;25.10;51.60
28548;DHT22;68292;49.600;8.746;2023-06-24T07:07:10;25.10;51.70
28548;DHT22;68292;49.600;8.746;2023-06-24T07:09:38;25.10;51.70
28548;DHT22;68292;49.600;8.746;2023-06-24T07:12:07;25.20;51.80
28548;DHT22;68292;49.600;8.746;2023-06-24T07:14:36;25.20;51.50
28548;DHT22;68292;49.600;8.746;2023-06-24T07:17:05;25.20;51.40
28548;DHT22;68292;49.600;8.746;2023-06-24T07:19:34;25.20;51.50
28548;DHT22;68292;49.600;8.746;2023-06-24T07:22:03;25.20;51.40
28548;DHT22;68292;49.600;8.746;2023-06-24T07:24:31;25.30;51.40
28548;DHT22;68292;49.600;8.746;2023-06-24T07:26:59;25.30;51.40
28548;DHT22;68292;49.600;8.746;2023-06-24T07:29:27;25.30;51.40
28548;DHT22;68292;49.600;8.746;2023-06-24T07:31:56;25.40;51.30
28548;DHT22;68292;49.600;8.746;2023-06-24T07:34:24;25.40;51.30
28548;DHT22;68292;49.600;8.746;2023-06-24T07:36:53;25.40;51.30
28548;DHT22;68292;49.600;8.746;2023-06-24T07:39:21;25.40;51.00
28548;DHT22;68292;49.600;8.746;2023-06-24T07:41:49;25.50;51.00
28548;DHT22;68292;49.600;8.746;2023-06-24T07:44:17;25.50;51.00
28548;DHT22;68292;49.600;8.746;2023-06-24T07:46:46;25.60;51.10
28548;DHT22;68292;49.600;8.746;2023-06-24T07:49:15;25.50;51.10
28548;DHT22;68292;49.600;8.746;2023-06-24T07:51:43;25.60;51.10
28548;DHT22;68292;49.600;8.746;2023-06-24T07:54:13;25.60;51.00
28548;DHT22;68292;49.600;8.746;2023-06-24T07:56:41;25.60;51.00
28548;DHT22;68292;49.600;8.746;2023-06-24T07:59:09;25.60;51.00
28548;DHT22;68292;49.600;8.746;2023-06-24T08:01:37;25.70;51.10
28548;DHT22;68292;49.600;8.746;2023-06-24T08:04:05;25.70;51.10
28548;DHT22;68292;49.600;8.746;2023-06-24T08:06:33;25.70;51.20
28548;DHT22;68292;49.600;8.746;2023-06-24T08:09:02;25.70;51.20
28548;DHT22;68292;49.600;8.746;2023-06-24T08:11:31;25.80;51.30
28548;DHT22;68292;49.600;8.746;2023-06-24T08:14:00;25.80;51.30
28548;DHT22;68292;49.600;8.746;2023-06-24T08:16:30;25.80;51.30
28548;DHT22;68292;49.600;8.746;2023-06-24T08:18:58;25.80;51.10
28548;DHT22;68292;49.600;8.746;2023-06-24T08:21:26;25.80;51.00
28548;DHT22;68292;49.600;8.746;2023-06-24T08:23:56;25.90;51.00
28548;DHT22;68292;49.600;8.746;2023-06-24T08:26:24;25.90;51.10
28548;DHT22;68292;49.600;8.746;2023-06-24T08:28:54;25.90;51.30
28548;DHT22;68292;49.600;8.746;2023-06-24T08:31:22;25.90;51.40
28548;DHT22;68292;49.600;8.746;2023-06-24T08:33:52;26.00;51.40
28548;DHT22;68292;49.600;8.746;2023-06-24T08:36:21;26.00;51.40
28548;DHT22;68292;49.600;8.746;2023-06-24T08:38:50;26.00;51.30
28548;DHT22;68292;49.600;8.746;2023-06-24T08:41:18;26.00;51.20
28548;DHT22;68292;49.600;8.746;2023-06-24T08:43:47;26.00;51.20
28548;DHT22;68292;49.600;8.746;2023-06-24T08:46:16;26.00;50.90
28548;DHT22;68292;49.600;8.746;2023-06-24T08:48:46;26.00;51.00
28548;DHT22;68292;49.600;8.746;2023-06-24T08:51:20;26.10;51.00
28548;DHT22;68292;49.600;8.746;2023-06-24T08:53:49;26.10;51.00
28548;DHT22;68292;49.600;8.746;2023-06-24T08:56:18;26.10;50.90
28548;DHT22;68292;49.600;8.746;2023-06-24T08:58:46;26.10;50.90
28548;DHT22;68292;49.600;8.746;2023-06-24T09:01:15;26.10;50.70
28548;DHT22;68292;49.600;8.746;2023-06-24T09:03:44;26.10;50.90
28548;DHT22;68292;49.600;8.746;2023-06-24T09:06:12;26.20;50.90
28548;DHT22;68292;49.600;8.746;2023-06-24T09:08:40;26.20;50.90
28548;DHT22;68292;49.600;8.746;2023-06-24T09:11:08;26.20;50.90
28548;DHT22;68292;49.600;8.746;2023-06-24T09:13:37;26.20;50.90
28548;DHT22;68292;49.600;8.746;2023-06-24T09:16:12;26.20;50.90
28548;DHT22;68292;49.600;8.746;2023-06-24T09:18:47;26.20;50.90
28548;DHT22;68292;49.600;8.746;2023-06-24T09:21:22;26.20;50.70
28548;DHT22;68292;49.600;8.746;2023-06-24T09:23:55;26.20;50.50
28548;DHT22;68292;49.600;8.746;2023-06-24T09:26:24;26.30;50.60
28548;DHT22;68292;49.600;8.746;2023-06-24T09:28:52;26.20;50.60
28548;DHT22;68292;49.600;8.746;2023-06-24T09:31:21;26.30;50.60
28548;DHT22;68292;49.600;8.746;2023-06-24T09:33:51;26.30;50.70
28548;DHT22;68292;49.600;8.746;2023-06-24T09:36:19;26.30;50.60
28548;DHT22;68292;49.600;8.746;2023-06-24T09:38:47;26.30;50.50
28548;DHT22;68292;49.600;8.746;2023-06-24T09:41:17;26.30;50.40
28548;DHT22;68292;49.600;8.746;2023-06-24T09:43:45;26.30;49.90
28548;DHT22;68292;49.600;8.746;2023-06-24T09:46:14;26.30;49.70
28548;DHT22;68292;49.600;8.746;2023-06-24T09:48:44;26.40;49.80
28548;DHT22;68292;49.600;8.746;2023-06-24T09:51:14;26.30;49.60
28548;DHT22;68292;49.600;8.746;2023-06-24T09:53:43;26.40;49.20
28548;DHT22;68292;49.600;8.746;2023-06-24T09:56:13;26.40;49.30
28548;DHT22;68292;49.600;8.746;2023-06-24T09:58:42;26.40;49.40
28548;DHT22;68292;49.600;8.746;2023-06-24T10:01:11;26.50;49.50
28548;DHT22;68292;49.600;8.746;2023-06-24T10:03:40;26.40;49.20
28548;DHT22;68292;49.600;8.746;2023-06-24T10:06:09;26.50;49.50
28548;DHT22;68292;49.600;8.746;2023-06-24T10:08:38;26.50;49.30
28548;DHT22;68292;49.600;8.746;2023-06-24T10:11:06;26.60;49.50
28548;DHT22;68292;49.600;8.746;2023-06-24T10:13:34;26.60;49.60
28548;DHT22;68292;49.600;8.746;2023-06-24T10:16:03;26.60;49.50
28548;DHT22;68292;49.600;8.746;2023-06-24T10:18:35;26.60;49.50
28548;DHT22;68292;49.600;8.746;2023-06-24T10:21:05;26.70;49.60
28548;DHT22;68292;49.600;8.746;2023-06-24T10:23:41;26.70;49.50
28548;DHT22;68292;49.600;8.746;2023-06-24T10:26:21;26.70;49.10
28548;DHT22;68292;49.600;8.746;2023-06-24T10:29:09;26.70;49.50
28548;DHT22;68292;49.600;8.746;2023-06-24T10:31:53;26.80;49.50
28548;DHT22;68292;49.600;8.746;2023-06-24T10:34:28;26.80;49.50
28548;DHT22;68292;49.600;8.746;2023-06-24T10:36:59;26.80;49.50
28548;DHT22;68292;49.600;8.746;2023-06-24T10:39:37;26.80;49.60
28548;DHT22;68292;49.600;8.746;2023-06-24T10:42:26;26.80;49.50
28548;DHT22;68292;49.600;8.746;2023-06-24T10:44:56;26.80;49.40
28548;DHT22;68292;49.600;8.746;2023-06-24T10:47:26;26.90;49.30
28548;DHT22;68292;49.600;8.746;2023-06-24T10:49:56;26.90;49.20
28548;DHT22;68292;49.600;8.746;2023-06-24T10:52:24;26.90;49.20
28548;DHT22;68292;49.600;8.746;2023-06-24T10:54:55;26.90;49.20
28548;DHT22;68292;49.600;8.746;2023-06-24T10:57:25;26.90;49.20
28548;DHT22;68292;49.600;8.746;2023-06-24T10:59:54;26.90;49.20
28548;DHT22;68292;49.600;8.746;2023-06-24T11:02:24;26.90;49.10
28548;DHT22;68292;49.600;8.746;2023-06-24T11:04:54;26.90;49.00
28548;DHT22;68292;49.600;8.746;2023-06-24T11:07:25;26.90;48.90
28548;DHT22;68292;49.600;8.746;2023-06-24T11:10:01;26.90;48.70
28548;DHT22;68292;49.600;8.746;2023-06-24T11:12:32;26.90;48.50
28548;DHT22;68292;49.600;8.746;2023-06-24T11:15:02;26.90;48.70
28548;DHT22;68292;49.600;8.746;2023-06-24T11:17:33;26.90;48.80
28548;DHT22;68292;49.600;8.746;2023-06-24T11:20:06;26.90;48.90
28548;DHT22;68292;49.600;8.746;2023-06-24T11:22:36;26.90;48.80
28548;DHT22;68292;49.600;8.746;2023-06-24T11:25:12;26.90;48.60
28548;DHT22;68292;49.600;8.746;2023-06-24T11:27:42;26.90;48.10
28548;DHT22;68292;49.600;8.746;2023-06-24T11:30:11;27.00;48.50
28548;DHT22;68292;49.600;8.746;2023-06-24T11:32:41;26.90;48.50
28548;DHT22;68292;49.600;8.746;2023-06-24T11:35:12;27.00;48.40
28548;DHT22;68292;49.600;8.746;2023-06-24T11:37:43;27.00;48.50
28548;DHT22;68292;49.600;8.746;2023-06-24T11:40:17;27.00;48.20
28548;DHT22;68292;49.600;8.746;2023-06-24T11:42:48;27.00;47.70
28548;DHT22;68292;49.600;8.746;2023-06-24T11:45:20;27.00;47.30
28548;DHT22;68292;49.600;8.746;2023-06-24T11:47:49;27.00;47.40
28548;DHT22;68292;49.600;8.746;2023-06-24T11:50:26;27.10;47.60
28548;DHT22;68292;49.600;8.746;2023-06-24T11:52:54;27.10;47.60
28548;DHT22;68292;49.600;8.746;2023-06-24T11:55:25;27.10;48.00
28548;DHT22;68292;49.600;8.746;2023-06-24T11:57:56;27.10;47.70
28548;DHT22;68292;49.600;8.746;2023-06-24T12:00:27;27.10;47.90
28548;DHT22;68292;49.600;8.746;2023-06-24T12:02:57;27.20;48.00
28548;DHT22;68292;49.600;8.746;2023-06-24T12:05:28;27.20;47.90
28548;DHT22;68292;49.600;8.746;2023-06-24T12:07:59;27.20;47.90
28548;DHT22;68292;49.600;8.746;2023-06-24T12:10:30;27.20;47.70
28548;DHT22;68292;49.600;8.746;2023-06-24T12:13:01;27.20;47.70
28548;DHT22;68292;49.600;8.746;2023-06-24T12:15:30;27.20;47.90
28548;DHT22;68292;49.600;8.746;2023-06-24T12:17:58;27.20;47.90
28548;DHT22;68292;49.600;8.746;2023-06-24T12:20:28;27.20;47.80
28548;DHT22;68292;49.600;8.746;2023-06-24T12:23:00;27.20;47.40
28548;DHT22;68292;49.600;8.746;2023-06-24T12:25:31;27.20;47.70
28548;DHT22;68292;49.600;8.746;2023-06-24T12:28:00;27.30;47.40
28548;DHT22;68292;49.600;8.746;2023-06-24T12:30:28;27.30;46.90
28548;DHT22;68292;49.600;8.746;2023-06-24T12:32:56;27.30;46.60
28548;DHT22;68292;49.600;8.746;2023-06-24T12:35:24;27.30;46.40
28548;DHT22;68292;49.600;8.746;2023-06-24T12:37:53;27.30;45.80
28548;DHT22;68292;49.600;8.746;2023-06-24T12:40:21;27.30;45.90
28548;DHT22;68292;49.600;8.746;2023-06-24T12:42:50;27.30;46.10
28548;DHT22;68292;49.600;8.746;2023-06-24T12:45:18;27.30;46.10
28548;DHT22;68292;49.600;8.746;2023-06-24T12:47:46;27.30;46.40
28548;DHT22;68292;49.600;8.746;2023-06-24T12:50:17;27.30;46.50
28548;DHT22;68292;49.600;8.746;2023-06-24T12:52:45;27.30;46.40
28548;DHT22;68292;49.600;8.746;2023-06-24T12:55:13;27.30;46.30
28548;DHT22;68292;49.600;8.746;2023-06-24T12:57:43;27.30;46.30
28548;DHT22;68292;49.600;8.746;2023-06-24T13:00:14;27.30;46.20
28548;DHT22;68292;49.600;8.746;2023-06-24T13:02:43;27.30;45.90
28548;DHT22;68292;49.600;8.746;2023-06-24T13:05:12;27.30;46.10
28548;DHT22;68292;49.600;8.746;2023-06-24T13:07:40;27.30;46.10
28548;DHT22;68292;49.600;8.746;2023-06-24T13:10:09;27.30;46.10
28548;DHT22;68292;49.600;8.746;2023-06-24T13:12:37;27.30;45.70
28548;DHT22;68292;49.600;8.746;2023-06-24T13:15:06;27.30;45.70
28548;DHT22;68292;49.600;8.746;2023-06-24T13:17:37;27.30;45.10
28548;DHT22;68292;49.600;8.746;2023-06-24T13:20:06;27.30;45.30
28548;DHT22;68292;49.600;8.746;2023-06-24T13:22:35;27.30;45.50
28548;DHT22;68292;49.600;8.746;2023-06-24T13:25:04;27.30;45.80
28548;DHT22;68292;49.600;8.746;2023-06-24T13:27:34;27.30;45.90
28548;DHT22;68292;49.600;8.746;2023-06-24T13:30:08;27.30;45.20
28548;DHT22;68292;49.600;8.746;2023-06-24T13:32:38;27.30;45.10
28548;DHT22;68292;49.600;8.746;2023-06-24T13:35:08;27.30;44.90
28548;DHT22;68292;49.600;8.746;2023-06-24T13:37:37;27.30;44.90
28548;DHT22;68292;49.600;8.746;2023-06-24T13:40:07;27.30;45.00
28548;DHT22;68292;49.600;8.746;2023-06-24T13:42:36;27.30;45.00
28548;DHT22;68292;49.600;8.746;2023-06-24T13:45:05;27.30;45.10
28548;DHT22;68292;49.600;8.746;2023-06-24T13:47:35;27.30;45.20
28548;DHT22;68292;49.600;8.746;2023-06-24T13:50:06;27.30;45.20
28548;DHT22;68292;49.600;8.746;2023-06-24T13:52:35;27.30;45.20
28548;DHT22;68292;49.600;8.746;2023-06-24T13:55:05;27.30;46.00
28548;DHT22;68292;49.600;8.746;2023-06-24T13:57:34;27.30;45.40
28548;DHT22;68292;49.600;8.746;2023-06-24T14:00:03;27.30;45.20
28548;DHT22;68292;49.600;8.746;2023-06-24T14:02:38;27.30;45.20
28548;DHT22;68292;49.600;8.746;2023-06-24T14:05:08;27.30;45.10
28548;DHT22;68292;49.600;8.746;2023-06-24T14:07:37;27.30;45.20
28548;DHT22;68292;49.600;8.746;2023-06-24T14:10:06;27.40;45.10
28548;DHT22;68292;49.600;8.746;2023-06-24T14:12:34;27.30;45.10
28548;DHT22;68292;49.600;8.746;2023-06-24T14:15:05;27.40;45.00
28548;DHT22;68292;49.600;8.746;2023-06-24T14:17:34;27.40;45.20
28548;DHT22;68292;49.600;8.746;2023-06-24T14:20:02;27.40;45.30
28548;DHT22;68292;49.600;8.746;2023-06-24T14:22:33;27.40;45.40
28548;DHT22;68292;49.600;8.746;2023-06-24T14:25:01;27.40;45.20
28548;DHT22;68292;49.600;8.746;2023-06-24T14:27:29;27.40;45.10
28548;DHT22;68292;49.600;8.746;2023-06-24T14:29:57;27.40;44.70
28548;DHT22;68292;49.600;8.746;2023-06-24T14:32:26;27.40;44.60
28548;DHT22;68292;49.600;8.746;2023-06-24T14:34:54;27.40;44.30
28548;DHT22;68292;49.600;8.746;2023-06-24T14:37:23;27.40;44.40
28548;DHT22;68292;49.600;8.746;2023-06-24T14:39:53;27.40;44.00
28548;DHT22;68292;49.600;8.746;2023-06-24T14:42:21;27.40;44.10
28548;DHT22;68292;49.600;8.746;2023-06-24T14:44:50;27.50;44.40
28548;DHT22;68292;49.600;8.746;2023-06-24T14:47:19;27.50;44.20
28548;DHT22;68292;49.600;8.746;2023-06-24T14:49:48;27.50;44.00
28548;DHT22;68292;49.600;8.746;2023-06-24T14:52:16;27.50;43.90
28548;DHT22;68292;49.600;8.746;2023-06-24T14:54:46;27.50;43.80
28548;DHT22;68292;49.600;8.746;2023-06-24T14:57:16;27.50;43.90
28548;DHT22;68292;49.600;8.746;2023-06-24T14:59:44;27.50;43.80
28548;DHT22;68292;49.600;8.746;2023-06-24T15:02:13;27.50;43.80
28548;DHT22;68292;49.600;8.746;2023-06-24T15:04:42;27.50;43.80
28548;DHT22;68292;49.600;8.746;2023-06-24T15:07:10;27.50;43.80
28548;DHT22;68292;49.600;8.746;2023-06-24T15:09:38;27.50;43.70
28548;DHT22;68292;49.600;8.746;2023-06-24T15:12:07;27.50;43.10
28548;DHT22;68292;49.600;8.746;2023-06-24T15:14:36;27.50;43.00
28548;DHT22;68292;49.600;8.746;2023-06-24T15:17:04;27.50;43.10
28548;DHT22;68292;49.600;8.746;2023-06-24T15:19:33;27.50;43.10
28548;DHT22;68292;49.600;8.746;2023-06-24T15:22:02;27.50;43.10
28548;DHT22;68292;49.600;8.746;2023-06-24T15:24:30;27.50;43.10
28548;DHT22;68292;49.600;8.746;2023-06-24T15:26:58;27.50;43.40
28548;DHT22;68292;49.600;8.746;2023-06-24T15:29:27;27.50;43.50
28548;DHT22;68292;49.600;8.746;2023-06-24T15:31:57;27.50;43.00
28548;DHT22;68292;49.600;8.746;2023-06-24T15:34:25;27.50;42.50
28548;DHT22;68292;49.600;8.746;2023-06-24T15:36:53;27.50;43.00
28548;DHT22;68292;49.600;8.746;2023-06-24T15:39:21;27.50;42.90
28548;DHT22;68292;49.600;8.746;2023-06-24T15:41:50;27.50;42.80
28548;DHT22;68292;49.600;8.746;2023-06-24T15:44:18;27.50;42.80
28548;DHT22;68292;49.600;8.746;2023-06-24T15:46:47;27.60;42.90